Koyukuk, AK (99754)

16:07:AKDT den 31. Oktober 2014 (GMT -0800)
Pitka | Change Station
CLOSE
Current Station
Flyplass
Location: Galena,
Høyde over havet: 151 ft
Nearby Weather Stations

H.o.h 151 ft 64.74 °N, 156.94 °W | Updated 9 minutes ago

Clear
Klart
23 °F
Feels Like 12 °F
N
10
Vind Variabel Vind from
Gusts 16 mph

I dag
High -- | Low -- °F
--% Chance of Precip.
I går
High -- | Low -- °F
Precip. -- tommer
10:16 AM 6:11 PM
Første kvarter, 60% visible
Lufttrykk 29.42 tommer
Sikt 10.0 eng. mil
Skyet Klart
Nedkjølingseffekt 12 °F
Duggpunkt 12 °F
Fuktighet 63%
Regn 0.00 tommer
Snødybde Not available.
UV 0 av 12
Pollen Not available.
Luftkvalitet Not available.
Flu Activity Not available.
METAR PAGA 312358Z AUTO 04009G14KT 10SM CLR M05/M11 A2940 RMK AO2 SLP962 T10501111 11050 21089 57015 FZRANO

More Conditions Fewer Conditions

Lufttrykk 29.42 tommer
Sikt 10.0 eng. mil
Skyet Klart
Nedkjølingseffekt 12 °F
Duggpunkt 12 °F
Fuktighet 63%
Regn 0.00 tommer
Snødybde Not available.
UV 0 av 12
Pollen Not available.
Luftkvalitet Not available.
Flu Activity Not available.
METAR PAGA 312358Z AUTO 04009G14KT 10SM CLR M05/M11 A2940 RMK AO2 SLP962 T10501111 11050 21089 57015 FZRANO

More Conditions Fewer Conditions

10-Day Weather Forecast

Almanac

Astronomi

Oct. 31, 2014 Oppgang Nedgang
Virkelig tid
Tussmørke
Nautisk skumring
Astronomisk skumring
Månen
Lengde av synlig lys
Dagens lengde
Tomorrow will be .
, % of the Moon is Illuminated

Dagens maks og min

State Highs State Lows

Community

WunderPhotos

Upload Photos

1,766,788 photos uploaded!

WunderBlogs® & News

Nearby

Luftkvalitet

  Luftkvalitet AQ Indeks Forurensing
Not available.

Snødybde

Stasjon Depth Høyde over havet

Earthquake Activity

By Distance Mag. Time & Date
Minimum magnitude displayed is 2.5.

Coastal Water Temperatures

Sted Temperatur

Nearby Weather Stations